sensor_id;sensor_type;location;lat;lon;timestamp;temperature;humidity
35445;DHT22;21562;49.476;6.086;2023-03-04T00:01:42;6.20;99.90
35445;DHT22;21562;49.476;6.086;2023-03-04T00:04:08;6.10;99.90
35445;DHT22;21562;49.476;6.086;2023-03-04T00:06:34;6.10;99.90
35445;DHT22;21562;49.476;6.086;2023-03-04T00:08:59;6.20;99.90
35445;DHT22;21562;49.476;6.086;2023-03-04T00:11:25;6.10;99.90
35445;DHT22;21562;49.476;6.086;2023-03-04T00:13:51;5.90;99.90
35445;DHT22;21562;49.476;6.086;2023-03-04T00:16:17;5.90;99.90
35445;DHT22;21562;49.476;6.086;2023-03-04T00:18:43;5.70;99.90
35445;DHT22;21562;49.476;6.086;2023-03-04T00:21:08;5.80;99.90
35445;DHT22;21562;49.476;6.086;2023-03-04T00:23:34;5.70;99.90
35445;DHT22;21562;49.476;6.086;2023-03-04T00:25:59;5.70;99.90
35445;DHT22;21562;49.476;6.086;2023-03-04T00:28:25;5.70;99.90
35445;DHT22;21562;49.476;6.086;2023-03-04T00:30:51;5.70;99.90
35445;DHT22;21562;49.476;6.086;2023-03-04T00:33:16;5.50;99.90
35445;DHT22;21562;49.476;6.086;2023-03-04T00:35:42;5.50;99.90
35445;DHT22;21562;49.476;6.086;2023-03-04T00:38:08;5.50;99.90
35445;DHT22;21562;49.476;6.086;2023-03-04T00:40:34;5.60;99.90
35445;DHT22;21562;49.476;6.086;2023-03-04T00:42:59;5.70;99.90
35445;DHT22;21562;49.476;6.086;2023-03-04T00:45:25;5.90;99.90
35445;DHT22;21562;49.476;6.086;2023-03-04T00:47:51;6.00;99.90
35445;DHT22;21562;49.476;6.086;2023-03-04T00:50:17;5.70;99.90
35445;DHT22;21562;49.476;6.086;2023-03-04T00:52:42;5.50;99.90
35445;DHT22;21562;49.476;6.086;2023-03-04T00:55:08;5.60;99.90
35445;DHT22;21562;49.476;6.086;2023-03-04T00:57:34;5.50;99.90
35445;DHT22;21562;49.476;6.086;2023-03-04T01:00:00;5.50;99.90
35445;DHT22;21562;49.476;6.086;2023-03-04T01:02:25;5.60;99.90
35445;DHT22;21562;49.476;6.086;2023-03-04T01:04:51;5.70;99.90
35445;DHT22;21562;49.476;6.086;2023-03-04T01:07:17;5.70;99.90
35445;DHT22;21562;49.476;6.086;2023-03-04T01:09:42;5.90;99.90
35445;DHT22;21562;49.476;6.086;2023-03-04T01:12:08;5.90;99.90
35445;DHT22;21562;49.476;6.086;2023-03-04T01:14:34;6.00;99.90
35445;DHT22;21562;49.476;6.086;2023-03-04T01:16:59;6.00;99.90
35445;DHT22;21562;49.476;6.086;2023-03-04T01:19:25;5.90;99.90
35445;DHT22;21562;49.476;6.086;2023-03-04T01:21:51;5.80;99.90
35445;DHT22;21562;49.476;6.086;2023-03-04T01:24:17;5.60;99.90
35445;DHT22;21562;49.476;6.086;2023-03-04T01:26:42;5.60;99.90
35445;DHT22;21562;49.476;6.086;2023-03-04T01:29:08;5.70;99.90
35445;DHT22;21562;49.476;6.086;2023-03-04T01:31:34;5.80;99.90
35445;DHT22;21562;49.476;6.086;2023-03-04T01:33:59;5.90;99.90
35445;DHT22;21562;49.476;6.086;2023-03-04T01:36:25;5.90;99.90
35445;DHT22;21562;49.476;6.086;2023-03-04T01:38:51;6.00;99.90
35445;DHT22;21562;49.476;6.086;2023-03-04T01:41:18;6.00;99.90
35445;DHT22;21562;49.476;6.086;2023-03-04T01:43:45;6.00;99.90
35445;DHT22;21562;49.476;6.086;2023-03-04T01:46:11;6.00;99.90
35445;DHT22;21562;49.476;6.086;2023-03-04T01:48:40;6.00;99.90
35445;DHT22;21562;49.476;6.086;2023-03-04T01:51:11;5.90;99.90
35445;DHT22;21562;49.476;6.086;2023-03-04T01:53:38;5.80;99.90
35445;DHT22;21562;49.476;6.086;2023-03-04T01:56:23;5.80;99.90
35445;DHT22;21562;49.476;6.086;2023-03-04T01:59:15;5.80;99.90
35445;DHT22;21562;49.476;6.086;2023-03-04T02:01:45;5.70;99.90
35445;DHT22;21562;49.476;6.086;2023-03-04T02:04:11;5.70;99.90
35445;DHT22;21562;49.476;6.086;2023-03-04T02:06:38;5.60;99.90
35445;DHT22;21562;49.476;6.086;2023-03-04T02:09:06;5.70;99.90
35445;DHT22;21562;49.476;6.086;2023-03-04T02:11:32;5.70;99.90
35445;DHT22;21562;49.476;6.086;2023-03-04T02:13:58;5.60;99.90
35445;DHT22;21562;49.476;6.086;2023-03-04T02:16:24;5.50;99.90
35445;DHT22;21562;49.476;6.086;2023-03-04T02:18:51;5.60;99.90
35445;DHT22;21562;49.476;6.086;2023-03-04T02:26:17;5.50;99.90
35445;DHT22;21562;49.476;6.086;2023-03-04T02:28:44;5.60;99.90
35445;DHT22;21562;49.476;6.086;2023-03-04T02:31:41;5.50;99.90
35445;DHT22;21562;49.476;6.086;2023-03-04T02:34:11;5.40;99.90
35445;DHT22;21562;49.476;6.086;2023-03-04T02:36:39;5.40;99.90
35445;DHT22;21562;49.476;6.086;2023-03-04T02:39:19;5.40;99.90
35445;DHT22;21562;49.476;6.086;2023-03-04T02:41:53;5.40;99.90
35445;DHT22;21562;49.476;6.086;2023-03-04T02:44:25;5.40;99.90
35445;DHT22;21562;49.476;6.086;2023-03-04T02:46:51;5.50;99.90
35445;DHT22;21562;49.476;6.086;2023-03-04T02:49:18;5.50;99.90
35445;DHT22;21562;49.476;6.086;2023-03-04T02:51:44;5.40;99.90
35445;DHT22;21562;49.476;6.086;2023-03-04T02:54:17;5.20;99.90
35445;DHT22;21562;49.476;6.086;2023-03-04T02:56:47;5.20;99.90
35445;DHT22;21562;49.476;6.086;2023-03-04T02:59:13;5.20;99.90
35445;DHT22;21562;49.476;6.086;2023-03-04T03:01:38;5.20;99.90
35445;DHT22;21562;49.476;6.086;2023-03-04T03:04:04;5.20;99.90
35445;DHT22;21562;49.476;6.086;2023-03-04T03:06:30;5.00;99.90
35445;DHT22;21562;49.476;6.086;2023-03-04T03:08:55;5.10;99.90
35445;DHT22;21562;49.476;6.086;2023-03-04T03:11:21;5.10;99.90
35445;DHT22;21562;49.476;6.086;2023-03-04T03:13:47;5.20;99.90
35445;DHT22;21562;49.476;6.086;2023-03-04T03:16:12;5.20;99.90
35445;DHT22;21562;49.476;6.086;2023-03-04T03:18:38;5.20;99.90
35445;DHT22;21562;49.476;6.086;2023-03-04T03:21:05;4.90;99.90
35445;DHT22;21562;49.476;6.086;2023-03-04T03:23:30;4.90;99.90
35445;DHT22;21562;49.476;6.086;2023-03-04T03:25:56;4.60;99.90
35445;DHT22;21562;49.476;6.086;2023-03-04T03:28:21;4.70;99.90
35445;DHT22;21562;49.476;6.086;2023-03-04T03:30:47;4.80;99.90
35445;DHT22;21562;49.476;6.086;2023-03-04T03:33:12;4.90;99.90
35445;DHT22;21562;49.476;6.086;2023-03-04T03:35:38;5.00;99.90
35445;DHT22;21562;49.476;6.086;2023-03-04T03:38:04;4.90;99.90
35445;DHT22;21562;49.476;6.086;2023-03-04T03:40:29;4.70;99.90
35445;DHT22;21562;49.476;6.086;2023-03-04T03:42:55;4.60;99.90
35445;DHT22;21562;49.476;6.086;2023-03-04T03:45:20;4.60;99.90
35445;DHT22;21562;49.476;6.086;2023-03-04T03:47:46;4.70;99.90
35445;DHT22;21562;49.476;6.086;2023-03-04T03:50:12;4.80;99.90
35445;DHT22;21562;49.476;6.086;2023-03-04T03:52:37;4.70;99.90
35445;DHT22;21562;49.476;6.086;2023-03-04T03:55:03;4.80;99.90
35445;DHT22;21562;49.476;6.086;2023-03-04T03:57:29;4.90;99.90
35445;DHT22;21562;49.476;6.086;2023-03-04T03:59:55;4.80;99.90
35445;DHT22;21562;49.476;6.086;2023-03-04T04:02:21;4.90;99.90
35445;DHT22;21562;49.476;6.086;2023-03-04T04:04:47;4.90;99.90
35445;DHT22;21562;49.476;6.086;2023-03-04T04:07:13;5.00;99.90
35445;DHT22;21562;49.476;6.086;2023-03-04T04:09:39;5.00;99.90
35445;DHT22;21562;49.476;6.086;2023-03-04T04:12:06;5.10;99.90
35445;DHT22;21562;49.476;6.086;2023-03-04T04:14:32;5.10;99.90
35445;DHT22;21562;49.476;6.086;2023-03-04T04:16:58;5.10;99.90
35445;DHT22;21562;49.476;6.086;2023-03-04T04:19:23;5.00;99.90
35445;DHT22;21562;49.476;6.086;2023-03-04T04:21:49;4.80;99.90
35445;DHT22;21562;49.476;6.086;2023-03-04T04:24:15;4.90;99.90
35445;DHT22;21562;49.476;6.086;2023-03-04T04:26:41;5.00;99.90
35445;DHT22;21562;49.476;6.086;2023-03-04T04:29:07;5.00;99.90
35445;DHT22;21562;49.476;6.086;2023-03-04T04:31:34;4.90;99.90
35445;DHT22;21562;49.476;6.086;2023-03-04T04:34:00;5.00;99.90
35445;DHT22;21562;49.476;6.086;2023-03-04T04:36:26;4.80;99.90
35445;DHT22;21562;49.476;6.086;2023-03-04T04:38:52;4.80;99.90
35445;DHT22;21562;49.476;6.086;2023-03-04T04:41:23;4.70;99.90
35445;DHT22;21562;49.476;6.086;2023-03-04T04:43:49;4.80;99.90
35445;DHT22;21562;49.476;6.086;2023-03-04T04:46:15;4.60;99.90
35445;DHT22;21562;49.476;6.086;2023-03-04T04:48:41;4.80;99.90
35445;DHT22;21562;49.476;6.086;2023-03-04T04:51:07;4.80;99.90
35445;DHT22;21562;49.476;6.086;2023-03-04T04:53:33;4.90;99.90
35445;DHT22;21562;49.476;6.086;2023-03-04T04:55:59;5.00;99.90
35445;DHT22;21562;49.476;6.086;2023-03-04T04:58:24;5.00;99.90
35445;DHT22;21562;49.476;6.086;2023-03-04T05:00:50;5.00;99.90
35445;DHT22;21562;49.476;6.086;2023-03-04T05:03:16;5.00;99.90
35445;DHT22;21562;49.476;6.086;2023-03-04T05:05:41;5.10;99.90
35445;DHT22;21562;49.476;6.086;2023-03-04T05:08:07;5.20;99.90
35445;DHT22;21562;49.476;6.086;2023-03-04T05:10:33;5.00;99.90
35445;DHT22;21562;49.476;6.086;2023-03-04T05:12:58;5.10;99.90
35445;DHT22;21562;49.476;6.086;2023-03-04T05:15:24;5.20;99.90
35445;DHT22;21562;49.476;6.086;2023-03-04T05:17:49;5.30;99.90
35445;DHT22;21562;49.476;6.086;2023-03-04T05:20:15;5.20;99.90
35445;DHT22;21562;49.476;6.086;2023-03-04T05:22:41;5.00;99.90
35445;DHT22;21562;49.476;6.086;2023-03-04T05:25:07;5.20;99.90
35445;DHT22;21562;49.476;6.086;2023-03-04T05:27:32;5.20;99.90
35445;DHT22;21562;49.476;6.086;2023-03-04T05:29:58;5.10;99.90
35445;DHT22;21562;49.476;6.086;2023-03-04T05:32:27;5.10;99.90
35445;DHT22;21562;49.476;6.086;2023-03-04T05:34:52;5.10;99.90
35445;DHT22;21562;49.476;6.086;2023-03-04T05:37:18;5.10;99.90
35445;DHT22;21562;49.476;6.086;2023-03-04T05:39:44;5.00;99.90
35445;DHT22;21562;49.476;6.086;2023-03-04T05:42:09;5.30;99.90
35445;DHT22;21562;49.476;6.086;2023-03-04T05:44:35;5.40;99.90
35445;DHT22;21562;49.476;6.086;2023-03-04T05:47:00;5.30;99.90
35445;DHT22;21562;49.476;6.086;2023-03-04T05:49:26;5.40;99.90
35445;DHT22;21562;49.476;6.086;2023-03-04T05:51:52;5.40;99.90
35445;DHT22;21562;49.476;6.086;2023-03-04T05:54:17;5.40;99.90
35445;DHT22;21562;49.476;6.086;2023-03-04T05:56:43;5.40;99.90
35445;DHT22;21562;49.476;6.086;2023-03-04T05:59:09;5.50;99.90
35445;DHT22;21562;49.476;6.086;2023-03-04T06:01:34;5.50;99.90
35445;DHT22;21562;49.476;6.086;2023-03-04T06:04:00;5.60;99.90
35445;DHT22;21562;49.476;6.086;2023-03-04T06:06:25;5.40;99.90
35445;DHT22;21562;49.476;6.086;2023-03-04T06:08:51;5.40;99.90
35445;DHT22;21562;49.476;6.086;2023-03-04T06:11:17;5.40;99.90
35445;DHT22;21562;49.476;6.086;2023-03-04T06:13:42;5.60;99.90
35445;DHT22;21562;49.476;6.086;2023-03-04T06:16:08;5.70;99.90
35445;DHT22;21562;49.476;6.086;2023-03-04T06:18:34;5.90;99.90
35445;DHT22;21562;49.476;6.086;2023-03-04T06:21:01;5.80;99.90
35445;DHT22;21562;49.476;6.086;2023-03-04T06:23:28;5.80;99.90
35445;DHT22;21562;49.476;6.086;2023-03-04T06:25:56;5.90;99.90
35445;DHT22;21562;49.476;6.086;2023-03-04T06:28:22;5.90;99.90
35445;DHT22;21562;49.476;6.086;2023-03-04T06:30:51;5.90;99.90
35445;DHT22;21562;49.476;6.086;2023-03-04T06:33:17;5.80;99.90
35445;DHT22;21562;49.476;6.086;2023-03-04T06:35:43;5.80;99.90
35445;DHT22;21562;49.476;6.086;2023-03-04T06:38:09;5.70;99.90
35445;DHT22;21562;49.476;6.086;2023-03-04T06:40:34;5.90;99.90
35445;DHT22;21562;49.476;6.086;2023-03-04T06:43:00;5.80;99.90
35445;DHT22;21562;49.476;6.086;2023-03-04T06:45:26;5.80;99.90
35445;DHT22;21562;49.476;6.086;2023-03-04T06:47:51;5.40;99.90
35445;DHT22;21562;49.476;6.086;2023-03-04T06:50:17;5.10;99.90
35445;DHT22;21562;49.476;6.086;2023-03-04T06:52:42;4.90;99.90
35445;DHT22;21562;49.476;6.086;2023-03-04T06:55:09;4.90;99.90
35445;DHT22;21562;49.476;6.086;2023-03-04T06:57:34;5.10;99.90
35445;DHT22;21562;49.476;6.086;2023-03-04T07:00:00;5.00;99.90
35445;DHT22;21562;49.476;6.086;2023-03-04T07:02:27;5.10;99.90
35445;DHT22;21562;49.476;6.086;2023-03-04T07:04:53;5.00;99.90
35445;DHT22;21562;49.476;6.086;2023-03-04T07:07:18;4.80;99.90
35445;DHT22;21562;49.476;6.086;2023-03-04T07:09:44;4.80;99.90
35445;DHT22;21562;49.476;6.086;2023-03-04T07:12:10;4.90;99.90
35445;DHT22;21562;49.476;6.086;2023-03-04T07:14:36;4.90;99.90
35445;DHT22;21562;49.476;6.086;2023-03-04T07:17:01;4.70;99.90
35445;DHT22;21562;49.476;6.086;2023-03-04T07:19:27;4.90;99.90
35445;DHT22;21562;49.476;6.086;2023-03-04T07:21:52;4.90;99.90
35445;DHT22;21562;49.476;6.086;2023-03-04T07:24:18;4.60;99.90
35445;DHT22;21562;49.476;6.086;2023-03-04T07:26:44;4.40;99.90
35445;DHT22;21562;49.476;6.086;2023-03-04T07:29:11;4.10;99.90
35445;DHT22;21562;49.476;6.086;2023-03-04T07:31:37;4.30;99.90
35445;DHT22;21562;49.476;6.086;2023-03-04T07:34:05;4.50;99.90
35445;DHT22;21562;49.476;6.086;2023-03-04T07:36:32;4.70;99.90
35445;DHT22;21562;49.476;6.086;2023-03-04T07:38:58;4.80;99.90
35445;DHT22;21562;49.476;6.086;2023-03-04T07:41:25;4.70;99.90
35445;DHT22;21562;49.476;6.086;2023-03-04T07:43:52;4.40;99.90
35445;DHT22;21562;49.476;6.086;2023-03-04T07:46:18;4.30;99.90
35445;DHT22;21562;49.476;6.086;2023-03-04T07:48:44;4.10;99.90
35445;DHT22;21562;49.476;6.086;2023-03-04T07:51:11;4.20;99.90
35445;DHT22;21562;49.476;6.086;2023-03-04T07:53:38;4.40;99.90
35445;DHT22;21562;49.476;6.086;2023-03-04T07:56:05;4.40;99.90
35445;DHT22;21562;49.476;6.086;2023-03-04T07:58:31;4.50;99.90
35445;DHT22;21562;49.476;6.086;2023-03-04T08:00:57;4.60;99.90
35445;DHT22;21562;49.476;6.086;2023-03-04T08:03:23;4.80;99.90
35445;DHT22;21562;49.476;6.086;2023-03-04T08:05:50;5.00;99.90
35445;DHT22;21562;49.476;6.086;2023-03-04T08:08:16;5.00;99.90
35445;DHT22;21562;49.476;6.086;2023-03-04T08:10:41;5.10;99.90
35445;DHT22;21562;49.476;6.086;2023-03-04T08:13:08;5.30;99.90
35445;DHT22;21562;49.476;6.086;2023-03-04T08:15:33;5.50;99.90
35445;DHT22;21562;49.476;6.086;2023-03-04T08:18:03;5.70;99.90
35445;DHT22;21562;49.476;6.086;2023-03-04T08:20:29;5.40;99.90
35445;DHT22;21562;49.476;6.086;2023-03-04T08:22:55;5.50;99.90
35445;DHT22;21562;49.476;6.086;2023-03-04T08:25:20;5.30;99.90
35445;DHT22;21562;49.476;6.086;2023-03-04T08:27:46;5.20;99.90
35445;DHT22;21562;49.476;6.086;2023-03-04T08:30:12;5.10;99.90
35445;DHT22;21562;49.476;6.086;2023-03-04T08:32:37;5.10;99.90
35445;DHT22;21562;49.476;6.086;2023-03-04T08:35:03;5.20;99.90
35445;DHT22;21562;49.476;6.086;2023-03-04T08:37:29;5.50;99.90
35445;DHT22;21562;49.476;6.086;2023-03-04T08:39:55;5.50;99.90
35445;DHT22;21562;49.476;6.086;2023-03-04T08:42:20;5.40;99.90
35445;DHT22;21562;49.476;6.086;2023-03-04T08:44:47;5.40;99.90
35445;DHT22;21562;49.476;6.086;2023-03-04T08:47:12;5.20;99.90
35445;DHT22;21562;49.476;6.086;2023-03-04T08:49:38;5.30;99.90
35445;DHT22;21562;49.476;6.086;2023-03-04T08:52:03;5.40;99.90
35445;DHT22;21562;49.476;6.086;2023-03-04T08:54:29;5.60;99.90
35445;DHT22;21562;49.476;6.086;2023-03-04T08:56:55;5.60;99.90
35445;DHT22;21562;49.476;6.086;2023-03-04T08:59:21;5.50;99.90
35445;DHT22;21562;49.476;6.086;2023-03-04T09:01:46;5.60;99.90
35445;DHT22;21562;49.476;6.086;2023-03-04T09:04:12;5.70;99.90
35445;DHT22;21562;49.476;6.086;2023-03-04T09:06:37;5.90;99.90
35445;DHT22;21562;49.476;6.086;2023-03-04T09:09:03;5.90;99.90
35445;DHT22;21562;49.476;6.086;2023-03-04T09:11:29;6.00;99.90
35445;DHT22;21562;49.476;6.086;2023-03-04T09:13:55;6.00;99.90
35445;DHT22;21562;49.476;6.086;2023-03-04T09:16:21;5.80;99.90
35445;DHT22;21562;49.476;6.086;2023-03-04T09:18:46;5.70;99.90
35445;DHT22;21562;49.476;6.086;2023-03-04T09:21:12;5.90;99.90
35445;DHT22;21562;49.476;6.086;2023-03-04T09:23:38;5.90;99.90
35445;DHT22;21562;49.476;6.086;2023-03-04T09:26:21;5.90;99.90
35445;DHT22;21562;49.476;6.086;2023-03-04T09:28:56;5.90;99.90
35445;DHT22;21562;49.476;6.086;2023-03-04T09:31:22;5.90;99.90
35445;DHT22;21562;49.476;6.086;2023-03-04T09:33:49;6.10;99.90
35445;DHT22;21562;49.476;6.086;2023-03-04T09:36:15;5.80;99.90
35445;DHT22;21562;49.476;6.086;2023-03-04T09:38:42;5.40;99.90
35445;DHT22;21562;49.476;6.086;2023-03-04T09:41:14;5.50;99.90
35445;DHT22;21562;49.476;6.086;2023-03-04T09:43:42;5.70;99.90
35445;DHT22;21562;49.476;6.086;2023-03-04T09:46:15;5.90;99.90
35445;DHT22;21562;49.476;6.086;2023-03-04T09:48:47;6.00;99.90
35445;DHT22;21562;49.476;6.086;2023-03-04T09:54:06;6.40;99.90
35445;DHT22;21562;49.476;6.086;2023-03-04T09:56:40;6.30;99.90
35445;DHT22;21562;49.476;6.086;2023-03-04T09:59:25;6.40;99.90
35445;DHT22;21562;49.476;6.086;2023-03-04T10:01:54;6.50;99.90
35445;DHT22;21562;49.476;6.086;2023-03-04T10:04:47;6.50;99.90
35445;DHT22;21562;49.476;6.086;2023-03-04T10:07:26;6.60;99.90
35445;DHT22;21562;49.476;6.086;2023-03-04T10:09:59;6.40;99.90
35445;DHT22;21562;49.476;6.086;2023-03-04T10:12:28;6.50;99.90
35445;DHT22;21562;49.476;6.086;2023-03-04T10:15:28;6.50;99.90
35445;DHT22;21562;49.476;6.086;2023-03-04T10:18:06;6.30;99.90
35445;DHT22;21562;49.476;6.086;2023-03-04T10:29:54;6.70;99.90
35445;DHT22;21562;49.476;6.086;2023-03-04T10:32:21;6.70;99.90
35445;DHT22;21562;49.476;6.086;2023-03-04T10:35:17;7.00;99.90
35445;DHT22;21562;49.476;6.086;2023-03-04T10:37:54;6.90;99.90
35445;DHT22;21562;49.476;6.086;2023-03-04T10:50:53;7.20;99.90
35445;DHT22;21562;49.476;6.086;2023-03-04T11:03:55;6.90;99.90
35445;DHT22;21562;49.476;6.086;2023-03-04T11:06:24;6.30;99.90
35445;DHT22;21562;49.476;6.086;2023-03-04T11:08:58;6.50;99.90
35445;DHT22;21562;49.476;6.086;2023-03-04T11:13:55;6.00;99.90
35445;DHT22;21562;49.476;6.086;2023-03-04T11:16:26;6.00;99.90
35445;DHT22;21562;49.476;6.086;2023-03-04T11:18:59;6.40;99.90
35445;DHT22;21562;49.476;6.086;2023-03-04T11:21:30;6.60;99.90
35445;DHT22;21562;49.476;6.086;2023-03-04T11:24:05;6.70;99.90
35445;DHT22;21562;49.476;6.086;2023-03-04T11:26:46;7.00;99.90
35445;DHT22;21562;49.476;6.086;2023-03-04T11:29:17;6.30;99.90
35445;DHT22;21562;49.476;6.086;2023-03-04T11:31:54;6.50;99.90
35445;DHT22;21562;49.476;6.086;2023-03-04T11:34:39;6.60;99.90
35445;DHT22;21562;49.476;6.086;2023-03-04T11:37:14;6.90;99.90
35445;DHT22;21562;49.476;6.086;2023-03-04T11:39:47;7.10;99.90
35445;DHT22;21562;49.476;6.086;2023-03-04T11:42:38;7.10;99.90
35445;DHT22;21562;49.476;6.086;2023-03-04T11:45:02;7.10;99.90
35445;DHT22;21562;49.476;6.086;2023-03-04T11:52:46;7.40;99.90
35445;DHT22;21562;49.476;6.086;2023-03-04T11:55:33;7.50;99.90
35445;DHT22;21562;49.476;6.086;2023-03-04T12:04:14;7.80;99.90
35445;DHT22;21562;49.476;6.086;2023-03-04T12:15:34;7.90;99.90
35445;DHT22;21562;49.476;6.086;2023-03-04T12:24:28;8.10;99.90
35445;DHT22;21562;49.476;6.086;2023-03-04T12:27:30;8.10;99.90
35445;DHT22;21562;49.476;6.086;2023-03-04T12:39:09;8.10;99.90
35445;DHT22;21562;49.476;6.086;2023-03-04T12:44:41;7.90;99.90
35445;DHT22;21562;49.476;6.086;2023-03-04T12:56:39;7.20;99.90
35445;DHT22;21562;49.476;6.086;2023-03-04T12:59:19;7.50;99.90
35445;DHT22;21562;49.476;6.086;2023-03-04T13:02:30;7.70;99.90
35445;DHT22;21562;49.476;6.086;2023-03-04T13:08:25;8.20;99.90
35445;DHT22;21562;49.476;6.086;2023-03-04T13:17:49;8.10;99.90
35445;DHT22;21562;49.476;6.086;2023-03-04T13:20:40;8.40;99.90
35445;DHT22;21562;49.476;6.086;2023-03-04T13:23:49;8.40;99.90
35445;DHT22;21562;49.476;6.086;2023-03-04T13:33:44;8.50;99.90
35445;DHT22;21562;49.476;6.086;2023-03-04T13:36:52;8.50;99.90
35445;DHT22;21562;49.476;6.086;2023-03-04T13:46:46;7.60;99.90
35445;DHT22;21562;49.476;6.086;2023-03-04T13:49:39;7.80;99.90
35445;DHT22;21562;49.476;6.086;2023-03-04T13:52:34;8.10;99.90
35445;DHT22;21562;49.476;6.086;2023-03-04T13:55:39;7.40;99.90
35445;DHT22;21562;49.476;6.086;2023-03-04T13:58:32;7.00;99.90
35445;DHT22;21562;49.476;6.086;2023-03-04T14:00:59;7.40;99.90
35445;DHT22;21562;49.476;6.086;2023-03-04T14:03:29;7.80;99.90
35445;DHT22;21562;49.476;6.086;2023-03-04T14:06:21;7.60;99.90
35445;DHT22;21562;49.476;6.086;2023-03-04T14:09:10;7.40;99.90
35445;DHT22;21562;49.476;6.086;2023-03-04T14:11:54;7.00;99.90
35445;DHT22;21562;49.476;6.086;2023-03-04T14:14:28;7.00;99.90
35445;DHT22;21562;49.476;6.086;2023-03-04T14:17:00;7.20;99.90
35445;DHT22;21562;49.476;6.086;2023-03-04T14:19:42;7.60;99.90
35445;DHT22;21562;49.476;6.086;2023-03-04T14:22:37;7.60;99.90
35445;DHT22;21562;49.476;6.086;2023-03-04T14:25:22;7.70;99.90
35445;DHT22;21562;49.476;6.086;2023-03-04T14:28:00;7.90;99.90
35445;DHT22;21562;49.476;6.086;2023-03-04T14:30:29;7.60;99.90
35445;DHT22;21562;49.476;6.086;2023-03-04T14:32:58;7.90;99.90
35445;DHT22;21562;49.476;6.086;2023-03-04T14:35:30;8.10;99.90
35445;DHT22;21562;49.476;6.086;2023-03-04T14:40:49;7.90;99.90
35445;DHT22;21562;49.476;6.086;2023-03-04T14:43:21;8.00;99.90
35445;DHT22;21562;49.476;6.086;2023-03-04T14:45:51;8.00;99.90
35445;DHT22;21562;49.476;6.086;2023-03-04T14:48:32;7.70;99.90
35445;DHT22;21562;49.476;6.086;2023-03-04T14:51:02;7.70;99.90
35445;DHT22;21562;49.476;6.086;2023-03-04T14:53:34;7.80;99.90
35445;DHT22;21562;49.476;6.086;2023-03-04T14:56:06;7.80;99.90
35445;DHT22;21562;49.476;6.086;2023-03-04T14:59:00;7.60;99.90
35445;DHT22;21562;49.476;6.086;2023-03-04T15:01:33;7.70;99.90
35445;DHT22;21562;49.476;6.086;2023-03-04T15:04:32;7.90;99.90
35445;DHT22;21562;49.476;6.086;2023-03-04T15:07:36;8.00;99.90
35445;DHT22;21562;49.476;6.086;2023-03-04T15:10:12;8.10;99.90
35445;DHT22;21562;49.476;6.086;2023-03-04T15:12:51;8.20;99.90
35445;DHT22;21562;49.476;6.086;2023-03-04T15:15:37;8.30;99.90
35445;DHT22;21562;49.476;6.086;2023-03-04T15:18:26;8.60;99.90
35445;DHT22;21562;49.476;6.086;2023-03-04T15:21:36;8.30;99.90
35445;DHT22;21562;49.476;6.086;2023-03-04T15:23:56;7.90;99.90
35445;DHT22;21562;49.476;6.086;2023-03-04T15:26:36;7.50;99.90
35445;DHT22;21562;49.476;6.086;2023-03-04T15:29:16;7.70;99.90
35445;DHT22;21562;49.476;6.086;2023-03-04T15:31:43;7.80;99.90
35445;DHT22;21562;49.476;6.086;2023-03-04T15:34:30;7.90;99.90
35445;DHT22;21562;49.476;6.086;2023-03-04T15:36:59;7.40;99.90
35445;DHT22;21562;49.476;6.086;2023-03-04T15:39:25;7.30;99.90
35445;DHT22;21562;49.476;6.086;2023-03-04T15:41:55;7.30;99.90
35445;DHT22;21562;49.476;6.086;2023-03-04T15:44:36;7.60;99.90
35445;DHT22;21562;49.476;6.086;2023-03-04T15:48:19;7.70;99.90
35445;DHT22;21562;49.476;6.086;2023-03-04T15:51:17;7.50;99.90
35445;DHT22;21562;49.476;6.086;2023-03-04T15:53:50;7.50;99.90
35445;DHT22;21562;49.476;6.086;2023-03-04T15:56:32;7.40;99.90
35445;DHT22;21562;49.476;6.086;2023-03-04T15:59:16;7.60;99.90
35445;DHT22;21562;49.476;6.086;2023-03-04T16:02:22;7.80;99.90
35445;DHT22;21562;49.476;6.086;2023-03-04T16:05:11;7.90;99.90
35445;DHT22;21562;49.476;6.086;2023-03-04T16:07:55;8.10;99.90
35445;DHT22;21562;49.476;6.086;2023-03-04T16:10:27;8.00;99.90
35445;DHT22;21562;49.476;6.086;2023-03-04T16:13:42;8.00;99.90
35445;DHT22;21562;49.476;6.086;2023-03-04T16:16:53;8.10;99.90
35445;DHT22;21562;49.476;6.086;2023-03-04T16:19:36;8.20;99.90
35445;DHT22;21562;49.476;6.086;2023-03-04T16:22:05;8.30;99.90
35445;DHT22;21562;49.476;6.086;2023-03-04T16:24:55;8.40;99.90
35445;DHT22;21562;49.476;6.086;2023-03-04T16:27:53;8.30;99.90
35445;DHT22;21562;49.476;6.086;2023-03-04T16:30:29;8.30;99.90
35445;DHT22;21562;49.476;6.086;2023-03-04T16:33:42;8.20;99.90
35445;DHT22;21562;49.476;6.086;2023-03-04T16:36:21;8.30;99.90
35445;DHT22;21562;49.476;6.086;2023-03-04T16:38:56;8.20;99.90
35445;DHT22;21562;49.476;6.086;2023-03-04T16:41:51;8.30;99.90
35445;DHT22;21562;49.476;6.086;2023-03-04T16:44:44;8.20;99.90
35445;DHT22;21562;49.476;6.086;2023-03-04T16:47:12;8.30;99.90
35445;DHT22;21562;49.476;6.086;2023-03-04T16:49:39;8.10;99.90
35445;DHT22;21562;49.476;6.086;2023-03-04T16:52:29;8.00;99.90
35445;DHT22;21562;49.476;6.086;2023-03-04T16:55:31;8.00;99.90
35445;DHT22;21562;49.476;6.086;2023-03-04T16:58:26;8.20;99.90
35445;DHT22;21562;49.476;6.086;2023-03-04T17:01:01;8.30;99.90
35445;DHT22;21562;49.476;6.086;2023-03-04T17:03:28;8.50;99.90
35445;DHT22;21562;49.476;6.086;2023-03-04T17:05:53;8.60;99.90
35445;DHT22;21562;49.476;6.086;2023-03-04T17:08:19;8.60;99.90
35445;DHT22;21562;49.476;6.086;2023-03-04T17:10:45;8.70;99.90
35445;DHT22;21562;49.476;6.086;2023-03-04T17:13:11;8.60;99.90
35445;DHT22;21562;49.476;6.086;2023-03-04T17:15:37;8.30;99.90
35445;DHT22;21562;49.476;6.086;2023-03-04T17:18:03;8.00;99.90
35445;DHT22;21562;49.476;6.086;2023-03-04T17:20:28;7.70;99.90
35445;DHT22;21562;49.476;6.086;2023-03-04T17:22:54;7.80;99.90
35445;DHT22;21562;49.476;6.086;2023-03-04T17:25:20;7.80;99.90
35445;DHT22;21562;49.476;6.086;2023-03-04T17:27:45;8.00;99.90
35445;DHT22;21562;49.476;6.086;2023-03-04T17:30:12;7.90;99.90
35445;DHT22;21562;49.476;6.086;2023-03-04T17:32:38;8.10;99.90
35445;DHT22;21562;49.476;6.086;2023-03-04T17:35:05;8.20;99.90
35445;DHT22;21562;49.476;6.086;2023-03-04T17:37:32;8.50;99.90
35445;DHT22;21562;49.476;6.086;2023-03-04T17:40:06;8.50;99.90
35445;DHT22;21562;49.476;6.086;2023-03-04T17:42:33;8.60;99.90
35445;DHT22;21562;49.476;6.086;2023-03-04T17:44:59;8.80;99.90
35445;DHT22;21562;49.476;6.086;2023-03-04T17:47:25;8.70;99.90
35445;DHT22;21562;49.476;6.086;2023-03-04T17:49:50;8.80;99.90
35445;DHT22;21562;49.476;6.086;2023-03-04T17:52:16;8.60;99.90
35445;DHT22;21562;49.476;6.086;2023-03-04T17:54:45;8.70;99.90
35445;DHT22;21562;49.476;6.086;2023-03-04T17:57:18;8.50;99.90
35445;DHT22;21562;49.476;6.086;2023-03-04T17:59:48;8.40;99.90
35445;DHT22;21562;49.476;6.086;2023-03-04T18:02:14;8.20;99.90
35445;DHT22;21562;49.476;6.086;2023-03-04T18:04:42;8.40;99.90
35445;DHT22;21562;49.476;6.086;2023-03-04T18:07:32;8.50;99.90